createdAt,value
2023-03-28T00:01:03.204Z,100.00
2023-03-28T00:03:35.715Z,100.00
2023-03-28T00:06:05.921Z,100.00
2023-03-28T00:08:33.278Z,100.00
2023-03-28T00:11:06.531Z,100.00
2023-03-28T00:13:34.200Z,100.00
2023-03-28T00:16:08.355Z,100.00
2023-03-28T00:18:39.217Z,100.00
2023-03-28T00:21:19.736Z,100.00
2023-03-28T00:23:46.937Z,100.00
2023-03-28T00:26:13.824Z,100.00
2023-03-28T00:28:41.054Z,100.00
2023-03-28T00:31:08.738Z,100.00
2023-03-28T00:33:35.939Z,100.00
2023-03-28T00:36:03.192Z,100.00
2023-03-28T00:38:31.564Z,100.00
2023-03-28T00:40:58.527Z,100.00
2023-03-28T00:43:43.661Z,100.00
2023-03-28T00:46:18.580Z,100.00
2023-03-28T00:48:52.672Z,100.00
2023-03-28T00:51:25.080Z,100.00
2023-03-28T00:53:57.974Z,100.00
2023-03-28T00:56:27.072Z,98.26
2023-03-28T00:58:54.341Z,97.04
2023-03-28T01:01:21.369Z,96.15
2023-03-28T01:04:02.428Z,95.71
2023-03-28T01:06:35.036Z,96.02
2023-03-28T01:09:06.846Z,95.70
2023-03-28T01:11:37.543Z,95.87
2023-03-28T01:14:04.865Z,96.89
2023-03-28T01:16:31.981Z,97.72
2023-03-28T01:19:03.764Z,97.27
2023-03-28T01:21:48.962Z,96.34
2023-03-28T01:24:46.262Z,96.96
2023-03-28T01:27:54.551Z,98.35
2023-03-28T01:30:34.222Z,97.38
2023-03-28T01:33:13.048Z,98.40
2023-03-28T01:36:33.855Z,99.13
2023-03-28T01:39:09.448Z,95.62
2023-03-28T01:41:55.454Z,94.37
2023-03-28T01:44:28.478Z,94.10
2023-03-28T01:47:07.964Z,94.28
2023-03-28T01:49:47.191Z,96.17
2023-03-28T01:52:20.786Z,97.15
2023-03-28T01:55:09.451Z,98.46
2023-03-28T01:57:56.724Z,99.79
2023-03-28T02:00:38.664Z,100.00
2023-03-28T02:03:13.246Z,100.00
2023-03-28T02:05:43.074Z,100.00
2023-03-28T02:08:12.157Z,100.00
2023-03-28T02:10:41.974Z,100.00
2023-03-28T02:13:16.460Z,100.00
2023-03-28T02:15:46.564Z,100.00
2023-03-28T02:18:29.731Z,99.77
2023-03-28T02:21:05.077Z,97.97
2023-03-28T02:23:39.299Z,97.70
2023-03-28T02:26:07.113Z,97.76
2023-03-28T02:28:37.153Z,97.17
2023-03-28T02:31:05.566Z,96.93
2023-03-28T02:33:38.122Z,97.30
2023-03-28T02:36:10.901Z,98.32
2023-03-28T02:38:48.351Z,99.32
2023-03-28T02:41:39.367Z,98.97
2023-03-28T02:44:35.769Z,97.15
2023-03-28T02:47:25.692Z,96.24
2023-03-28T02:50:27.902Z,96.23
2023-03-28T02:53:00.924Z,96.78
2023-03-28T02:55:41.705Z,96.98
2023-03-28T02:58:22.953Z,97.66
2023-03-28T03:00:51.312Z,98.51
2023-03-28T03:03:18.391Z,98.75
2023-03-28T03:05:45.607Z,99.99
2023-03-28T03:08:12.653Z,100.00
2023-03-28T03:10:39.835Z,100.00
2023-03-28T03:13:06.817Z,100.00
2023-03-28T03:15:35.798Z,100.00
2023-03-28T03:18:04.479Z,100.00
2023-03-28T03:20:33.779Z,100.00
2023-03-28T03:23:01.697Z,100.00
2023-03-28T03:25:31.422Z,100.00
2023-03-28T03:27:58.454Z,100.00
2023-03-28T03:30:25.686Z,100.00
2023-03-28T03:32:52.863Z,100.00
2023-03-28T03:35:20.462Z,100.00
2023-03-28T03:37:47.729Z,100.00
2023-03-28T03:40:14.953Z,100.00
2023-03-28T03:42:41.797Z,100.00
2023-03-28T03:45:09.986Z,100.00
2023-03-28T03:47:36.960Z,100.00
2023-03-28T03:50:04.591Z,100.00
2023-03-28T03:52:31.656Z,100.00
2023-03-28T03:54:58.767Z,100.00
2023-03-28T03:57:25.742Z,100.00
2023-03-28T03:59:52.921Z,100.00
2023-03-28T04:02:20.354Z,100.00
2023-03-28T04:04:47.869Z,100.00
2023-03-28T04:07:14.913Z,100.00
2023-03-28T04:09:42.065Z,100.00
2023-03-28T04:12:10.565Z,100.00
2023-03-28T04:14:37.693Z,100.00
2023-03-28T04:17:05.098Z,100.00
2023-03-28T04:19:32.397Z,100.00
2023-03-28T04:21:59.348Z,100.00
2023-03-28T04:24:26.770Z,100.00
2023-03-28T04:26:56.494Z,100.00
2023-03-28T04:29:30.651Z,100.00
2023-03-28T04:31:58.878Z,100.00
2023-03-28T04:34:30.308Z,100.00
2023-03-28T04:37:02.053Z,100.00
2023-03-28T04:39:30.971Z,100.00
2023-03-28T04:42:02.068Z,100.00
2023-03-28T04:44:29.738Z,100.00
2023-03-28T04:46:58.342Z,100.00
2023-03-28T04:49:25.859Z,100.00
2023-03-28T04:51:52.896Z,100.00
2023-03-28T04:54:20.386Z,100.00
2023-03-28T04:56:50.381Z,100.00
2023-03-28T04:59:18.359Z,100.00
2023-03-28T05:01:49.465Z,100.00
2023-03-28T05:04:17.888Z,100.00
2023-03-28T05:06:46.486Z,100.00
2023-03-28T05:09:14.447Z,98.14
2023-03-28T05:11:41.758Z,94.87
2023-03-28T05:14:09.253Z,89.92
2023-03-28T05:16:36.316Z,88.45
2023-03-28T05:19:04.041Z,86.76
2023-03-28T05:21:31.151Z,87.38
2023-03-28T05:23:58.352Z,86.75
2023-03-28T05:26:25.794Z,86.74
2023-03-28T05:28:53.208Z,86.64
2023-03-28T05:31:20.450Z,82.39
2023-03-28T05:33:47.746Z,84.44
2023-03-28T05:36:14.915Z,81.54
2023-03-28T05:38:42.312Z,76.21
2023-03-28T05:41:09.210Z,72.88
2023-03-28T05:43:36.362Z,67.25
2023-03-28T05:46:03.362Z,62.30
2023-03-28T05:48:31.763Z,60.01
2023-03-28T05:50:58.810Z,60.08
2023-03-28T05:53:26.258Z,57.28
2023-03-28T05:55:53.082Z,55.47
2023-03-28T05:58:20.370Z,55.59
2023-03-28T06:00:47.298Z,57.89
2023-03-28T06:03:16.778Z,57.64
2023-03-28T06:05:45.109Z,54.49
2023-03-28T06:08:12.379Z,55.51
2023-03-28T06:10:39.267Z,57.86
2023-03-28T06:13:06.454Z,63.12
2023-03-28T06:15:33.367Z,63.60
2023-03-28T06:18:00.960Z,61.05
2023-03-28T06:20:27.814Z,62.17
2023-03-28T06:22:55.075Z,61.46
2023-03-28T06:25:21.971Z,60.89
2023-03-28T06:27:49.590Z,61.33
2023-03-28T06:30:16.529Z,60.40
2023-03-28T06:32:43.875Z,60.96
2023-03-28T06:35:10.874Z,57.75
2023-03-28T06:37:38.083Z,56.71
2023-03-28T06:40:05.582Z,59.54
2023-03-28T06:42:32.800Z,54.09
2023-03-28T06:44:59.644Z,55.23
2023-03-28T06:47:26.984Z,55.32
2023-03-28T06:49:53.817Z,50.97
2023-03-28T06:52:23.205Z,49.98
2023-03-28T06:54:50.152Z,46.21
2023-03-28T06:57:17.465Z,44.07
2023-03-28T06:59:44.455Z,45.49
2023-03-28T07:02:11.901Z,47.01
2023-03-28T07:04:38.897Z,43.31
2023-03-28T07:07:07.978Z,41.64
2023-03-28T07:09:35.782Z,42.36
2023-03-28T07:12:03.776Z,43.31
2023-03-28T07:14:30.644Z,43.20
2023-03-28T07:16:57.939Z,41.20
2023-03-28T07:19:25.049Z,41.86
2023-03-28T07:21:53.299Z,42.36
2023-03-28T07:24:20.501Z,41.56
2023-03-28T07:26:47.714Z,41.11
2023-03-28T07:29:14.641Z,40.07
2023-03-28T07:31:42.199Z,39.38
2023-03-28T07:34:09.319Z,39.09
2023-03-28T07:36:38.492Z,34.92
2023-03-28T07:39:05.854Z,35.34
2023-03-28T07:41:33.028Z,34.62
2023-03-28T07:44:00.132Z,38.03
2023-03-28T07:46:28.034Z,35.43
2023-03-28T07:48:56.281Z,36.27
2023-03-28T07:51:23.441Z,35.78
2023-03-28T07:53:50.352Z,34.88
2023-03-28T07:56:17.572Z,34.53
2023-03-28T07:58:44.384Z,37.25
2023-03-28T08:01:12.935Z,35.27
2023-03-28T08:03:41.459Z,37.50
2023-03-28T08:06:24.191Z,40.77
2023-03-28T08:08:56.094Z,42.87
2023-03-28T08:11:23.312Z,45.79
2023-03-28T08:13:50.268Z,48.04
2023-03-28T08:16:17.477Z,46.56
2023-03-28T08:18:44.483Z,46.59
2023-03-28T08:21:11.622Z,50.61
2023-03-28T08:23:38.535Z,50.59
2023-03-28T08:26:07.404Z,51.08
2023-03-28T08:28:35.463Z,52.79
2023-03-28T08:31:09.351Z,53.59
2023-03-28T08:33:36.473Z,56.93
2023-03-28T08:36:03.892Z,62.11
2023-03-28T08:38:30.863Z,65.60
2023-03-28T08:41:16.096Z,69.10
2023-03-28T08:44:01.878Z,70.46
2023-03-28T08:46:31.045Z,73.29
2023-03-28T08:49:04.441Z,75.93
2023-03-28T08:51:37.092Z,80.46
2023-03-28T08:54:20.628Z,80.94
2023-03-28T08:56:57.324Z,82.82
2023-03-28T08:59:53.362Z,87.21
2023-03-28T09:02:27.036Z,89.31
2023-03-28T09:05:08.215Z,92.84
2023-03-28T09:08:09.195Z,92.92
2023-03-28T09:10:44.079Z,92.95
2023-03-28T09:13:39.405Z,91.90
2023-03-28T09:16:09.466Z,90.81
2023-03-28T09:19:11.001Z,92.20
2023-03-28T09:22:08.835Z,93.44
2023-03-28T09:25:01.166Z,93.65
2023-03-28T09:27:39.938Z,89.34
2023-03-28T09:30:18.159Z,83.11
2023-03-28T09:32:45.552Z,79.61
2023-03-28T09:35:21.678Z,77.25
2023-03-28T09:38:02.978Z,78.50
2023-03-28T09:40:33.002Z,80.85
2023-03-28T09:43:21.047Z,84.27
2023-03-28T09:46:08.602Z,86.85
2023-03-28T09:48:37.656Z,86.94
2023-03-28T09:51:07.231Z,86.70
2023-03-28T09:53:35.474Z,87.78
2023-03-28T09:56:08.126Z,91.04
2023-03-28T09:59:02.507Z,93.14
2023-03-28T10:01:38.984Z,91.85
2023-03-28T10:04:28.195Z,90.65
2023-03-28T10:07:22.389Z,82.56
2023-03-28T10:09:54.269Z,77.01
2023-03-28T10:12:39.112Z,79.25
2023-03-28T10:15:08.944Z,79.03
2023-03-28T10:17:38.148Z,77.44
2023-03-28T10:20:15.032Z,68.92
2023-03-28T10:22:45.845Z,58.52
2023-03-28T10:25:20.718Z,57.00
2023-03-28T10:27:51.784Z,54.22
2023-03-28T10:30:29.615Z,51.69
2023-03-28T10:33:25.019Z,46.93
2023-03-28T10:36:02.508Z,44.86
2023-03-28T10:38:47.764Z,47.89
2023-03-28T10:41:29.164Z,50.74
2023-03-28T10:43:57.139Z,52.16
2023-03-28T10:46:36.338Z,50.88
2023-03-28T10:49:07.412Z,48.62
2023-03-28T10:51:38.170Z,41.93
2023-03-28T10:54:12.921Z,41.38
2023-03-28T10:56:50.599Z,38.92
2023-03-28T10:59:41.386Z,41.89
2023-03-28T11:02:55.976Z,49.62
2023-03-28T11:06:01.791Z,47.25
2023-03-28T11:09:07.595Z,44.35
2023-03-28T11:11:44.263Z,41.29
2023-03-28T11:14:33.123Z,43.94
2023-03-28T11:17:22.391Z,48.52
2023-03-28T11:20:17.849Z,64.35
2023-03-28T11:22:52.508Z,78.86
2023-03-28T11:25:57.078Z,92.31
2023-03-28T11:28:43.133Z,98.93
2023-03-28T11:31:20.336Z,100.00
2023-03-28T11:33:53.016Z,100.00
2023-03-28T11:36:29.579Z,100.00
2023-03-28T11:39:20.389Z,100.00
2023-03-28T11:41:50.260Z,100.00
2023-03-28T11:44:33.158Z,100.00
2023-03-28T11:47:08.676Z,100.00
2023-03-28T11:49:47.110Z,100.00
2023-03-28T11:52:21.179Z,100.00
2023-03-28T11:54:48.289Z,100.00
2023-03-28T11:57:44.337Z,100.00
2023-03-28T12:00:47.385Z,90.41
2023-03-28T12:03:42.734Z,75.30
2023-03-28T12:06:20.678Z,67.86
2023-03-28T12:09:00.354Z,61.85
2023-03-28T12:11:36.658Z,63.34
2023-03-28T12:14:35.126Z,54.21
2023-03-28T12:17:14.009Z,57.17
2023-03-28T12:19:41.349Z,56.08
2023-03-28T12:22:27.332Z,54.16
2023-03-28T12:25:39.451Z,51.91
2023-03-28T12:28:23.670Z,60.45
2023-03-28T12:30:59.505Z,71.88
2023-03-28T12:33:30.549Z,81.51
2023-03-28T12:36:26.476Z,88.49
2023-03-28T12:39:22.726Z,95.01
2023-03-28T12:41:51.925Z,99.84
2023-03-28T12:44:29.261Z,100.00
2023-03-28T12:47:09.311Z,100.00
2023-03-28T12:49:51.506Z,100.00
2023-03-28T12:52:26.842Z,100.00
2023-03-28T12:54:57.646Z,100.00
2023-03-28T12:57:41.100Z,100.00
2023-03-28T13:00:26.484Z,100.00
2023-03-28T13:03:05.650Z,95.47
2023-03-28T13:05:47.387Z,88.99
2023-03-28T13:08:48.370Z,81.96
2023-03-28T13:11:30.154Z,79.41
2023-03-28T13:14:36.451Z,79.05
2023-03-28T13:17:26.253Z,78.98
2023-03-28T13:19:55.954Z,79.39
2023-03-28T13:22:42.557Z,81.93
2023-03-28T13:25:33.850Z,83.91
2023-03-28T13:28:24.473Z,85.14
2023-03-28T13:31:09.577Z,88.69
2023-03-28T13:33:38.818Z,87.15
2023-03-28T13:36:06.126Z,85.63
2023-03-28T13:39:04.183Z,87.65
2023-03-28T13:41:34.680Z,90.90
2023-03-28T13:44:10.580Z,92.51
2023-03-28T13:46:44.544Z,97.14
2023-03-28T13:49:30.166Z,100.00
2023-03-28T13:52:20.227Z,100.00
2023-03-28T13:54:54.211Z,100.00
2023-03-28T13:57:27.056Z,100.00
2023-03-28T13:59:58.534Z,100.00
2023-03-28T14:02:28.859Z,100.00
2023-03-28T14:05:03.555Z,100.00
2023-03-28T14:07:31.156Z,100.00
2023-03-28T14:09:58.415Z,100.00
2023-03-28T14:12:29.536Z,100.00
2023-03-28T14:14:59.067Z,99.33
2023-03-28T14:17:33.812Z,94.19
2023-03-28T14:20:05.522Z,94.87
2023-03-28T14:22:45.753Z,93.42
2023-03-28T14:25:17.551Z,90.31
2023-03-28T14:27:52.644Z,89.66
2023-03-28T14:30:31.061Z,89.37
2023-03-28T14:33:16.376Z,86.79
2023-03-28T14:35:45.686Z,86.68
2023-03-28T14:38:14.934Z,89.32
2023-03-28T14:40:45.746Z,87.86
2023-03-28T14:43:13.846Z,89.09
2023-03-28T14:45:44.789Z,89.06
2023-03-28T14:48:19.355Z,88.52
2023-03-28T14:50:48.844Z,89.20
2023-03-28T14:53:28.184Z,89.21
2023-03-28T14:56:02.258Z,89.82
2023-03-28T14:58:31.219Z,88.77
2023-03-28T15:01:01.828Z,89.32
2023-03-28T15:03:42.082Z,90.61
2023-03-28T15:06:16.588Z,90.13
2023-03-28T15:08:45.908Z,90.62
2023-03-28T15:11:22.415Z,89.93
2023-03-28T15:14:13.477Z,89.62
2023-03-28T15:16:44.269Z,86.04
2023-03-28T15:19:41.138Z,85.61
2023-03-28T15:22:12.942Z,81.95
2023-03-28T15:24:41.468Z,82.53
2023-03-28T15:27:24.020Z,82.31
2023-03-28T15:29:51.866Z,79.51
2023-03-28T15:32:20.728Z,76.84
2023-03-28T15:34:55.553Z,76.27
2023-03-28T15:37:25.417Z,73.76
2023-03-28T15:39:53.171Z,74.08
2023-03-28T15:42:20.885Z,74.99
2023-03-28T15:44:59.598Z,72.63
2023-03-28T15:47:33.804Z,73.38
2023-03-28T15:50:16.585Z,73.86
2023-03-28T15:52:43.989Z,74.03
2023-03-28T15:55:21.107Z,73.96
2023-03-28T15:57:48.469Z,71.48
2023-03-28T16:00:38.327Z,69.47
2023-03-28T16:03:20.616Z,64.96
2023-03-28T16:05:51.684Z,62.01
2023-03-28T16:08:31.071Z,61.27
2023-03-28T16:10:58.306Z,60.55
2023-03-28T16:13:25.766Z,59.97
2023-03-28T16:15:53.070Z,59.73
2023-03-28T16:18:21.161Z,58.21
2023-03-28T16:20:48.135Z,59.07
2023-03-28T16:23:15.458Z,58.65
2023-03-28T16:25:43.225Z,59.20
2023-03-28T16:28:18.411Z,59.71
2023-03-28T16:30:46.283Z,61.03
2023-03-28T16:33:13.873Z,62.40
2023-03-28T16:35:41.213Z,61.05
2023-03-28T16:38:11.851Z,61.58
2023-03-28T16:40:39.016Z,61.99
2023-03-28T16:43:06.795Z,63.17
2023-03-28T16:45:33.848Z,63.82
2023-03-28T16:48:01.765Z,63.69
2023-03-28T16:50:28.695Z,65.05
2023-03-28T16:52:55.966Z,65.99
2023-03-28T16:55:23.988Z,63.93
2023-03-28T16:57:51.326Z,64.55
2023-03-28T17:00:20.211Z,65.23
2023-03-28T17:02:48.201Z,66.50
2023-03-28T17:05:17.006Z,67.36
2023-03-28T17:07:44.797Z,68.64
2023-03-28T17:10:12.165Z,69.40
2023-03-28T17:12:39.466Z,70.56
2023-03-28T17:15:08.999Z,70.99
2023-03-28T17:17:36.586Z,72.22
2023-03-28T17:20:03.798Z,72.28
2023-03-28T17:22:31.253Z,73.28
2023-03-28T17:24:59.030Z,73.73
2023-03-28T17:27:26.606Z,74.30
2023-03-28T17:29:53.624Z,74.71
2023-03-28T17:32:22.193Z,74.94
2023-03-28T17:34:49.694Z,75.89
2023-03-28T17:37:17.059Z,76.29
2023-03-28T17:39:43.892Z,76.34
2023-03-28T17:42:11.113Z,77.43
2023-03-28T17:44:38.106Z,78.17
2023-03-28T17:47:05.501Z,78.30
2023-03-28T17:49:32.452Z,78.63
2023-03-28T17:52:00.220Z,79.48
2023-03-28T17:54:27.293Z,80.26
2023-03-28T17:56:54.563Z,77.92
2023-03-28T17:59:22.335Z,75.11
2023-03-28T18:01:49.998Z,73.04
2023-03-28T18:04:18.056Z,72.80
2023-03-28T18:06:45.654Z,71.82
2023-03-28T18:09:12.906Z,71.38
2023-03-28T18:11:41.503Z,71.62
2023-03-28T18:14:08.957Z,72.04
2023-03-28T18:16:36.844Z,72.41
2023-03-28T18:19:06.878Z,74.14
2023-03-28T18:21:34.180Z,73.04
2023-03-28T18:24:01.272Z,72.98
2023-03-28T18:26:28.947Z,73.49
2023-03-28T18:28:56.011Z,73.30
2023-03-28T18:31:28.150Z,72.43
2023-03-28T18:33:57.343Z,71.64
2023-03-28T18:36:24.897Z,72.47
2023-03-28T18:38:53.139Z,72.86
2023-03-28T18:41:20.587Z,73.14
2023-03-28T18:43:47.750Z,73.58
2023-03-28T18:46:16.123Z,73.66
2023-03-28T18:48:44.845Z,74.33
2023-03-28T18:51:12.489Z,74.84
2023-03-28T18:53:39.865Z,75.40
2023-03-28T18:56:08.513Z,76.08
2023-03-28T18:58:37.198Z,77.29
2023-03-28T19:01:06.372Z,77.47
2023-03-28T19:03:42.996Z,78.30
2023-03-28T19:06:15.387Z,78.74
2023-03-28T19:08:43.723Z,78.61
2023-03-28T19:11:13.897Z,78.45
2023-03-28T19:13:41.742Z,78.68
2023-03-28T19:16:12.597Z,76.65
2023-03-28T19:18:41.258Z,76.70
2023-03-28T19:21:10.175Z,77.67
2023-03-28T19:23:37.575Z,78.16
2023-03-28T19:26:07.267Z,79.34
2023-03-28T19:28:35.583Z,79.40
2023-03-28T19:31:05.975Z,79.77
2023-03-28T19:33:33.339Z,79.78
2023-03-28T19:36:01.250Z,79.32
2023-03-28T19:38:30.931Z,78.93
2023-03-28T19:41:02.708Z,79.42
2023-03-28T19:43:31.022Z,79.57
2023-03-28T19:46:06.927Z,79.24
2023-03-28T19:48:35.118Z,78.90
2023-03-28T19:51:02.802Z,78.22
2023-03-28T19:53:29.781Z,77.98
2023-03-28T19:55:59.827Z,78.46
2023-03-28T19:58:28.340Z,78.69
2023-03-28T20:00:57.105Z,79.05
2023-03-28T20:03:24.467Z,78.87
2023-03-28T20:05:55.564Z,80.07
2023-03-28T20:08:24.306Z,80.62
2023-03-28T20:10:52.762Z,81.79
2023-03-28T20:13:19.647Z,82.74
2023-03-28T20:15:47.440Z,82.89
2023-03-28T20:18:20.083Z,81.97
2023-03-28T20:20:52.530Z,81.47
2023-03-28T20:23:22.699Z,81.18
2023-03-28T20:25:52.324Z,80.80
2023-03-28T20:28:21.082Z,79.98
2023-03-28T20:30:48.381Z,79.46
2023-03-28T20:33:15.792Z,79.25
2023-03-28T20:35:51.768Z,78.95
2023-03-28T20:38:19.136Z,79.64
2023-03-28T20:40:49.416Z,80.35
2023-03-28T20:43:20.747Z,80.20
2023-03-28T20:45:54.144Z,81.04
2023-03-28T20:48:36.441Z,82.00
2023-03-28T20:51:17.113Z,81.50
2023-03-28T20:53:47.563Z,81.06
2023-03-28T20:56:15.888Z,81.05
2023-03-28T20:58:44.143Z,81.47
2023-03-28T21:01:13.424Z,80.99
2023-03-28T21:04:06.759Z,80.38
2023-03-28T21:06:39.660Z,80.87
2023-03-28T21:09:12.424Z,79.59
2023-03-28T21:11:40.317Z,79.61
2023-03-28T21:14:09.090Z,78.61
2023-03-28T21:16:37.988Z,78.72
2023-03-28T21:19:05.153Z,79.05
2023-03-28T21:21:34.096Z,78.88
2023-03-28T21:24:02.268Z,79.04
2023-03-28T21:26:29.799Z,79.43
2023-03-28T21:28:56.880Z,78.30
2023-03-28T21:31:26.791Z,78.96
2023-03-28T21:33:57.216Z,78.68
2023-03-28T21:36:25.604Z,79.53
2023-03-28T21:38:52.538Z,79.10
2023-03-28T21:41:20.024Z,79.90
2023-03-28T21:43:48.317Z,81.28
2023-03-28T21:46:18.541Z,82.62
2023-03-28T21:48:48.060Z,85.49
2023-03-28T21:51:17.251Z,87.50
2023-03-28T21:53:44.337Z,88.85
2023-03-28T21:56:12.847Z,89.43
2023-03-28T21:58:40.462Z,88.77
2023-03-28T22:01:08.139Z,88.59
2023-03-28T22:03:38.134Z,88.83
2023-03-28T22:06:05.793Z,88.87
2023-03-28T22:08:33.044Z,88.12
2023-03-28T22:11:02.688Z,87.90
2023-03-28T22:13:30.163Z,87.07
2023-03-28T22:16:00.792Z,86.75
2023-03-28T22:18:30.792Z,85.90
2023-03-28T22:21:02.424Z,85.46
2023-03-28T22:23:30.008Z,84.74
2023-03-28T22:25:58.634Z,84.84
2023-03-28T22:28:25.599Z,85.40
2023-03-28T22:30:56.728Z,85.71
2023-03-28T22:33:25.373Z,87.08
2023-03-28T22:35:53.264Z,88.17
2023-03-28T22:38:20.365Z,88.19
2023-03-28T22:40:47.802Z,89.05
2023-03-28T22:43:15.574Z,89.50
2023-03-28T22:45:43.060Z,89.49
2023-03-28T22:48:16.207Z,89.03
2023-03-28T22:50:44.523Z,89.42
2023-03-28T22:53:12.524Z,88.99
2023-03-28T22:55:39.775Z,87.38
2023-03-28T22:58:07.109Z,86.79
2023-03-28T23:00:34.765Z,87.09
2023-03-28T23:03:01.928Z,87.14
2023-03-28T23:05:29.712Z,86.25
2023-03-28T23:07:56.708Z,86.44
2023-03-28T23:10:24.421Z,86.54
2023-03-28T23:12:52.000Z,86.10
2023-03-28T23:15:19.444Z,86.79
2023-03-28T23:17:46.703Z,86.45
2023-03-28T23:20:15.063Z,85.92
2023-03-28T23:22:44.208Z,82.69
2023-03-28T23:25:12.868Z,81.12
2023-03-28T23:27:40.083Z,80.23
2023-03-28T23:30:08.978Z,79.55
2023-03-28T23:32:36.444Z,80.58
2023-03-28T23:35:05.746Z,82.13
2023-03-28T23:37:34.512Z,84.75
2023-03-28T23:40:02.341Z,86.57
2023-03-28T23:42:29.200Z,89.23
2023-03-28T23:44:56.409Z,91.12
2023-03-28T23:47:23.527Z,92.77
2023-03-28T23:49:50.757Z,93.91
2023-03-28T23:52:17.672Z,94.78
2023-03-28T23:54:45.542Z,95.22
2023-03-28T23:57:12.572Z,95.14
2023-03-28T23:59:39.917Z,95.66
